sensor_id;sensor_type;location;lat;lon;timestamp;pressure;altitude;pressure_sealevel;temperature;humidity
78625;BME280;67944;0.000;0.000;2023-10-19T00:00:04;98917.84;;;22.54;35.16
78625;BME280;67944;0.000;0.000;2023-10-19T00:02:46;98924.19;;;22.53;35.07
78625;BME280;67944;0.000;0.000;2023-10-19T00:05:12;98925.22;;;22.52;35.34
78625;BME280;67944;0.000;0.000;2023-10-19T00:07:40;98918.06;;;22.52;35.16
78625;BME280;67944;0.000;0.000;2023-10-19T00:10:07;98917.25;;;22.52;35.50
78625;BME280;67944;0.000;0.000;2023-10-19T00:12:33;98920.97;;;22.51;35.15
78625;BME280;67944;0.000;0.000;2023-10-19T00:14:58;98921.19;;;22.49;35.36
78625;BME280;67944;0.000;0.000;2023-10-19T00:17:25;98915.09;;;22.49;35.38
78625;BME280;67944;0.000;0.000;2023-10-19T00:19:52;98912.44;;;22.49;35.28
78625;BME280;67944;0.000;0.000;2023-10-19T00:22:36;98906.56;;;22.47;35.29
78625;BME280;67944;0.000;0.000;2023-10-19T00:25:02;98909.19;;;22.47;35.66
78625;BME280;67944;0.000;0.000;2023-10-19T00:27:29;98902.28;;;22.46;35.33
78625;BME280;67944;0.000;0.000;2023-10-19T00:29:54;98911.28;;;22.45;35.48
78625;BME280;67944;0.000;0.000;2023-10-19T00:32:31;98909.66;;;22.44;35.47
78625;BME280;67944;0.000;0.000;2023-10-19T00:34:56;98902.75;;;22.43;35.64
78625;BME280;67944;0.000;0.000;2023-10-19T00:37:22;98895.81;;;22.42;35.46
78625;BME280;67944;0.000;0.000;2023-10-19T00:39:53;98895.81;;;22.42;35.46
78625;BME280;67944;0.000;0.000;2023-10-19T00:42:20;98889.69;;;22.41;35.49
78625;BME280;67944;0.000;0.000;2023-10-19T00:44:50;98887.28;;;22.40;35.53
78625;BME280;67944;0.000;0.000;2023-10-19T00:47:16;98887.50;;;22.38;35.53
78625;BME280;67944;0.000;0.000;2023-10-19T00:49:47;98881.38;;;22.38;35.72
78625;BME280;67944;0.000;0.000;2023-10-19T00:52:14;98888.31;;;22.39;35.69
78625;BME280;67944;0.000;0.000;2023-10-19T00:54:51;98879.53;;;22.38;35.81
78625;BME280;67944;0.000;0.000;2023-10-19T00:57:19;98878.97;;;22.36;35.82
78625;BME280;67944;0.000;0.000;2023-10-19T01:00:07;98884.03;;;22.38;35.78
78625;BME280;67944;0.000;0.000;2023-10-19T01:02:46;98873.66;;;22.36;35.82
78625;BME280;67944;0.000;0.000;2023-10-19T01:05:12;98866.97;;;22.34;35.92
78625;BME280;67944;0.000;0.000;2023-10-19T01:07:40;98870.19;;;22.36;35.85
78625;BME280;67944;0.000;0.000;2023-10-19T01:10:07;98865.13;;;22.34;35.95
78625;BME280;67944;0.000;0.000;2023-10-19T01:12:33;98861.66;;;22.34;35.98
78625;BME280;67944;0.000;0.000;2023-10-19T01:15:11;98865.94;;;22.35;35.82
78625;BME280;67944;0.000;0.000;2023-10-19T01:17:50;98858.78;;;22.35;35.94
78625;BME280;67944;0.000;0.000;2023-10-19T01:20:25;98860.03;;;22.33;35.75
78625;BME280;67944;0.000;0.000;2023-10-19T01:23:11;98851.88;;;22.34;36.07
78625;BME280;67944;0.000;0.000;2023-10-19T01:25:54;98853.72;;;22.34;36.12
78625;BME280;67944;0.000;0.000;2023-10-19T01:28:27;98857.16;;;22.34;36.05
78625;BME280;67944;0.000;0.000;2023-10-19T01:33:40;98853.94;;;22.32;36.23
78625;BME280;67944;0.000;0.000;2023-10-19T01:36:08;98847.81;;;22.32;36.20
78625;BME280;67944;0.000;0.000;2023-10-19T01:38:37;98851.50;;;22.31;36.16
78625;BME280;67944;0.000;0.000;2023-10-19T01:41:05;98853.13;;;22.32;36.12
78625;BME280;67944;0.000;0.000;2023-10-19T01:43:41;98850.69;;;22.30;36.12
78625;BME280;67944;0.000;0.000;2023-10-19T01:46:08;98847.00;;;22.31;36.46
78625;BME280;67944;0.000;0.000;2023-10-19T01:48:43;98834.78;;;22.30;36.25
78625;BME280;67944;0.000;0.000;2023-10-19T01:51:12;98837.44;;;22.30;36.19
78625;BME280;67944;0.000;0.000;2023-10-19T01:53:41;98832.94;;;22.31;36.26
78625;BME280;67944;0.000;0.000;2023-10-19T01:56:10;98829.47;;;22.30;36.38
78625;BME280;67944;0.000;0.000;2023-10-19T01:58:39;98832.41;;;22.29;36.25
78625;BME280;67944;0.000;0.000;2023-10-19T02:01:06;98833.22;;;22.29;36.24
78625;BME280;67944;0.000;0.000;2023-10-19T02:03:54;98828.13;;;22.28;36.23
78625;BME280;67944;0.000;0.000;2023-10-19T02:06:22;98829.75;;;22.29;36.58
78625;BME280;67944;0.000;0.000;2023-10-19T02:09:10;98830.56;;;22.29;36.31
78625;BME280;67944;0.000;0.000;2023-10-19T02:11:57;98813.84;;;22.29;36.29
78625;BME280;67944;0.000;0.000;2023-10-19T02:14:27;98830.56;;;22.29;36.39
78625;BME280;67944;0.000;0.000;2023-10-19T02:16:57;98826.84;;;22.30;36.44
78625;BME280;67944;0.000;0.000;2023-10-19T02:19:26;98818.88;;;22.30;36.37
78625;BME280;67944;0.000;0.000;2023-10-19T02:21:54;98807.50;;;22.30;36.53
78625;BME280;67944;0.000;0.000;2023-10-19T02:24:21;98804.84;;;22.30;36.80
78625;BME280;67944;0.000;0.000;2023-10-19T02:26:50;98799.53;;;22.30;36.76
78625;BME280;67944;0.000;0.000;2023-10-19T02:29:16;98796.88;;;22.30;36.56
78625;BME280;67944;0.000;0.000;2023-10-19T02:31:42;98801.38;;;22.29;36.45
78625;BME280;67944;0.000;0.000;2023-10-19T02:34:10;98791.56;;;22.30;36.46
78625;BME280;67944;0.000;0.000;2023-10-19T02:36:37;98796.88;;;22.30;36.70
78625;BME280;67944;0.000;0.000;2023-10-19T02:39:08;98791.56;;;22.30;36.59
78625;BME280;67944;0.000;0.000;2023-10-19T02:41:44;98787.31;;;22.29;36.52
78625;BME280;67944;0.000;0.000;2023-10-19T02:44:15;98789.16;;;22.28;36.60
78625;BME280;67944;0.000;0.000;2023-10-19T02:46:41;98779.59;;;22.27;36.72
78625;BME280;67944;0.000;0.000;2023-10-19T02:49:12;98782.25;;;22.27;36.47
78625;BME280;67944;0.000;0.000;2023-10-19T02:51:40;98783.84;;;22.28;36.70
78625;BME280;67944;0.000;0.000;2023-10-19T02:54:07;98772.44;;;22.28;36.85
78625;BME280;67944;0.000;0.000;2023-10-19T02:56:33;98763.69;;;22.27;36.74
78625;BME280;67944;0.000;0.000;2023-10-19T02:59:01;98767.13;;;22.28;36.76
78625;BME280;67944;0.000;0.000;2023-10-19T03:01:30;98769.78;;;22.28;36.68
78625;BME280;67944;0.000;0.000;2023-10-19T03:04:02;98775.09;;;22.28;36.76
78625;BME280;67944;0.000;0.000;2023-10-19T03:06:30;98775.91;;;22.28;36.64
78625;BME280;67944;0.000;0.000;2023-10-19T03:09:04;98779.91;;;22.31;36.81
78625;BME280;67944;0.000;0.000;2023-10-19T03:11:30;98783.63;;;22.30;37.31
78625;BME280;67944;0.000;0.000;2023-10-19T03:14:00;98783.50;;;22.25;37.59
78625;BME280;67944;0.000;0.000;2023-10-19T03:16:26;98779.94;;;22.19;38.13
78625;BME280;67944;0.000;0.000;2023-10-19T03:18:55;98790.06;;;22.10;38.51
78625;BME280;67944;0.000;0.000;2023-10-19T03:21:21;98785.13;;;22.02;39.19
78625;BME280;67944;0.000;0.000;2023-10-19T03:23:53;98790.94;;;21.93;39.58
78625;BME280;67944;0.000;0.000;2023-10-19T03:26:18;98789.47;;;21.85;39.84
78625;BME280;67944;0.000;0.000;2023-10-19T03:28:56;98775.50;;;21.78;40.23
78625;BME280;67944;0.000;0.000;2023-10-19T03:31:26;98782.75;;;21.71;40.77
78625;BME280;67944;0.000;0.000;2023-10-19T03:33:52;98775.72;;;21.65;40.79
78625;BME280;67944;0.000;0.000;2023-10-19T03:36:22;98780.44;;;21.63;41.12
78625;BME280;67944;0.000;0.000;2023-10-19T03:38:49;98771.09;;;21.60;41.18
78625;BME280;67944;0.000;0.000;2023-10-19T03:41:17;98773.16;;;21.58;41.72
78625;BME280;67944;0.000;0.000;2023-10-19T03:43:46;98768.69;;;21.59;41.75
78625;BME280;67944;0.000;0.000;2023-10-19T03:46:12;98762.56;;;21.58;42.10
78625;BME280;67944;0.000;0.000;2023-10-19T03:49:00;98758.88;;;21.59;42.19
78625;BME280;67944;0.000;0.000;2023-10-19T03:51:38;98749.09;;;21.60;42.50
78625;BME280;67944;0.000;0.000;2023-10-19T03:54:24;98748.28;;;21.59;43.06
78625;BME280;67944;0.000;0.000;2023-10-19T03:56:51;98751.53;;;21.61;42.78
78625;BME280;67944;0.000;0.000;2023-10-19T03:59:21;98746.22;;;21.61;42.81
78625;BME280;67944;0.000;0.000;2023-10-19T04:01:46;98742.53;;;21.62;42.85
78625;BME280;67944;0.000;0.000;2023-10-19T04:04:12;98731.72;;;21.64;42.95
78625;BME280;67944;0.000;0.000;2023-10-19T04:06:40;98728.94;;;21.70;43.17
78625;BME280;67944;0.000;0.000;2023-10-19T04:09:06;98727.56;;;21.79;42.98
78625;BME280;67944;0.000;0.000;2023-10-19T04:11:32;98723.75;;;21.87;43.11
78625;BME280;67944;0.000;0.000;2023-10-19T04:13:59;98722.38;;;21.96;42.87
78625;BME280;67944;0.000;0.000;2023-10-19T04:16:29;98706.97;;;22.05;42.87
78625;BME280;67944;0.000;0.000;2023-10-19T04:18:55;98707.63;;;22.12;43.01
78625;BME280;67944;0.000;0.000;2023-10-19T04:21:21;98715.25;;;22.20;42.98
78625;BME280;67944;0.000;0.000;2023-10-19T04:23:46;98716.97;;;22.26;43.00
78625;BME280;67944;0.000;0.000;2023-10-19T04:26:12;98714.41;;;22.31;42.97
78625;BME280;67944;0.000;0.000;2023-10-19T04:28:41;98717.75;;;22.38;42.83
78625;BME280;67944;0.000;0.000;2023-10-19T04:31:11;98711.28;;;22.46;42.72
78625;BME280;67944;0.000;0.000;2023-10-19T04:33:39;98709.53;;;22.51;42.69
78625;BME280;67944;0.000;0.000;2023-10-19T04:36:08;98704.09;;;22.58;42.93
78625;BME280;67944;0.000;0.000;2023-10-19T04:38:36;98701.53;;;22.63;42.61
78625;BME280;67944;0.000;0.000;2023-10-19T04:41:09;98709.03;;;22.66;42.63
78625;BME280;67944;0.000;0.000;2023-10-19T04:43:39;98705.09;;;22.69;42.47
78625;BME280;67944;0.000;0.000;2023-10-19T04:46:09;98706.56;;;22.76;42.76
78625;BME280;67944;0.000;0.000;2023-10-19T04:48:41;98705.06;;;22.80;42.49
78625;BME280;67944;0.000;0.000;2023-10-19T04:51:07;98710.47;;;22.85;42.44
78625;BME280;67944;0.000;0.000;2023-10-19T04:53:35;98708.16;;;22.89;42.76
78625;BME280;67944;0.000;0.000;2023-10-19T04:56:01;98702.16;;;22.94;42.23
78625;BME280;67944;0.000;0.000;2023-10-19T04:58:30;98697.94;;;22.98;42.58
78625;BME280;67944;0.000;0.000;2023-10-19T05:00:56;98702.78;;;23.01;42.16
78625;BME280;67944;0.000;0.000;2023-10-19T05:03:25;98703.91;;;23.05;42.55
78625;BME280;67944;0.000;0.000;2023-10-19T05:05:51;98699.50;;;23.10;41.94
78625;BME280;67944;0.000;0.000;2023-10-19T05:08:16;98696.69;;;23.17;42.47
78625;BME280;67944;0.000;0.000;2023-10-19T05:10:42;98700.00;;;23.24;42.49
78625;BME280;67944;0.000;0.000;2023-10-19T05:13:07;98696.41;;;23.30;42.47
78625;BME280;67944;0.000;0.000;2023-10-19T05:15:33;98693.81;;;23.35;41.86
78625;BME280;67944;0.000;0.000;2023-10-19T05:18:00;98703.22;;;23.43;42.24
78625;BME280;67944;0.000;0.000;2023-10-19T05:20:25;98695.34;;;23.48;42.29
78625;BME280;67944;0.000;0.000;2023-10-19T05:22:51;98692.81;;;23.53;42.00
78625;BME280;67944;0.000;0.000;2023-10-19T05:25:16;98679.84;;;23.56;42.15
78625;BME280;67944;0.000;0.000;2023-10-19T05:27:42;98684.16;;;23.63;41.96
78625;BME280;67944;0.000;0.000;2023-10-19T05:30:08;98693.28;;;23.67;42.33
78625;BME280;67944;0.000;0.000;2023-10-19T05:32:35;98697.88;;;23.71;42.24
78625;BME280;67944;0.000;0.000;2023-10-19T05:35:01;98702.44;;;23.76;41.64
78625;BME280;67944;0.000;0.000;2023-10-19T05:37:29;98698.25;;;23.80;41.72
78625;BME280;67944;0.000;0.000;2023-10-19T05:39:55;98692.19;;;23.84;41.96
78625;BME280;67944;0.000;0.000;2023-10-19T05:42:20;98695.16;;;23.88;41.70
78625;BME280;67944;0.000;0.000;2023-10-19T05:44:47;98694.69;;;23.91;41.46
78625;BME280;67944;0.000;0.000;2023-10-19T05:47:12;98692.34;;;23.95;41.24
78625;BME280;67944;0.000;0.000;2023-10-19T05:49:38;98697.19;;;23.98;41.25
78625;BME280;67944;0.000;0.000;2023-10-19T05:52:03;98689.44;;;23.96;41.41
78625;BME280;67944;0.000;0.000;2023-10-19T05:54:29;98693.16;;;23.95;41.65
78625;BME280;67944;0.000;0.000;2023-10-19T05:56:54;98693.16;;;23.95;41.28
78625;BME280;67944;0.000;0.000;2023-10-19T05:59:20;98691.06;;;23.97;41.58
78625;BME280;67944;0.000;0.000;2023-10-19T06:01:45;98692.44;;;24.00;41.44
78625;BME280;67944;0.000;0.000;2023-10-19T06:04:13;98687.91;;;24.00;41.10
78625;BME280;67944;0.000;0.000;2023-10-19T06:06:39;98684.75;;;24.03;41.33
78625;BME280;67944;0.000;0.000;2023-10-19T06:09:07;98692.22;;;24.06;41.67
78625;BME280;67944;0.000;0.000;2023-10-19T06:11:36;98693.84;;;24.07;41.21
78625;BME280;67944;0.000;0.000;2023-10-19T06:14:08;98702.38;;;24.09;41.59
78625;BME280;67944;0.000;0.000;2023-10-19T06:16:35;98698.66;;;24.10;41.67
78625;BME280;67944;0.000;0.000;2023-10-19T06:19:00;98714.38;;;24.12;40.98
78625;BME280;67944;0.000;0.000;2023-10-19T06:21:26;98698.44;;;24.12;40.72
78625;BME280;67944;0.000;0.000;2023-10-19T06:23:51;98695.53;;;24.13;41.38
78625;BME280;67944;0.000;0.000;2023-10-19T06:26:18;98698.19;;;24.13;41.62
78625;BME280;67944;0.000;0.000;2023-10-19T06:28:44;98698.44;;;24.12;41.40
78625;BME280;67944;0.000;0.000;2023-10-19T06:31:10;98709.88;;;24.12;41.69
78625;BME280;67944;0.000;0.000;2023-10-19T06:33:35;98710.13;;;24.11;40.84
78625;BME280;67944;0.000;0.000;2023-10-19T06:36:02;98713.00;;;24.09;41.44
78625;BME280;67944;0.000;0.000;2023-10-19T06:38:30;98716.47;;;24.10;40.96
78625;BME280;67944;0.000;0.000;2023-10-19T06:40:59;98707.94;;;24.08;41.03
78625;BME280;67944;0.000;0.000;2023-10-19T06:43:25;98714.06;;;24.08;41.00
78625;BME280;67944;0.000;0.000;2023-10-19T06:45:55;98703.44;;;24.08;40.95
78625;BME280;67944;0.000;0.000;2023-10-19T06:48:21;98703.44;;;24.08;41.45
78625;BME280;67944;0.000;0.000;2023-10-19T06:50:46;98705.03;;;24.09;40.98
78625;BME280;67944;0.000;0.000;2023-10-19T06:53:12;98696.00;;;24.10;41.65
78625;BME280;67944;0.000;0.000;2023-10-19T06:55:37;98702.38;;;24.09;41.55
78625;BME280;67944;0.000;0.000;2023-10-19T06:58:03;98705.03;;;24.09;41.72
78625;BME280;67944;0.000;0.000;2023-10-19T07:00:29;98705.03;;;24.09;41.68
78625;BME280;67944;0.000;0.000;2023-10-19T07:02:56;98704.22;;;24.09;40.91
78625;BME280;67944;0.000;0.000;2023-10-19T07:05:23;98701.00;;;24.07;41.65
78625;BME280;67944;0.000;0.000;2023-10-19T07:07:56;98712.13;;;24.04;42.28
78625;BME280;67944;0.000;0.000;2023-10-19T07:10:23;98700.41;;;24.00;41.80
78625;BME280;67944;0.000;0.000;2023-10-19T07:12:52;98690.50;;;23.95;41.78
78625;BME280;67944;0.000;0.000;2023-10-19T07:15:19;98686.72;;;23.91;42.16
78625;BME280;67944;0.000;0.000;2023-10-19T07:17:49;98688.50;;;23.85;42.28
78625;BME280;67944;0.000;0.000;2023-10-19T07:20:16;98690.81;;;23.82;41.85
78625;BME280;67944;0.000;0.000;2023-10-19T07:22:59;98682.84;;;23.82;41.77
78625;BME280;67944;0.000;0.000;2023-10-19T07:25:36;98686.06;;;23.84;42.09
78625;BME280;67944;0.000;0.000;2023-10-19T07:28:12;98686.63;;;23.86;42.40
78625;BME280;67944;0.000;0.000;2023-10-19T07:30:38;98685.34;;;23.88;42.12
78625;BME280;67944;0.000;0.000;2023-10-19T07:33:04;98687.75;;;23.90;41.88
78625;BME280;67944;0.000;0.000;2023-10-19T07:35:34;98685.09;;;23.90;41.77
78625;BME280;67944;0.000;0.000;2023-10-19T07:38:01;98684.63;;;23.93;42.52
78625;BME280;67944;0.000;0.000;2023-10-19T07:40:28;98691.53;;;23.94;41.84
78625;BME280;67944;0.000;0.000;2023-10-19T07:42:54;98695.81;;;23.95;42.52
78625;BME280;67944;0.000;0.000;2023-10-19T07:45:20;98687.84;;;23.95;42.15
78625;BME280;67944;0.000;0.000;2023-10-19T07:47:47;98696.38;;;23.97;41.64
78625;BME280;67944;0.000;0.000;2023-10-19T07:50:14;98690.00;;;23.98;41.90
78625;BME280;67944;0.000;0.000;2023-10-19T07:52:51;98693.00;;;24.02;41.78
78625;BME280;67944;0.000;0.000;2023-10-19T07:55:18;98683.16;;;24.02;42.13
78625;BME280;67944;0.000;0.000;2023-10-19T07:57:44;98678.38;;;24.04;41.85
78625;BME280;67944;0.000;0.000;2023-10-19T08:00:11;98681.59;;;24.06;42.39
78625;BME280;67944;0.000;0.000;2023-10-19T08:02:39;98681.34;;;24.08;42.21
78625;BME280;67944;0.000;0.000;2023-10-19T08:05:07;98697.06;;;24.09;42.05
78625;BME280;67944;0.000;0.000;2023-10-19T08:07:33;98690.69;;;24.10;42.13
78625;BME280;67944;0.000;0.000;2023-10-19T08:10:02;98693.91;;;24.12;42.25
78625;BME280;67944;0.000;0.000;2023-10-19T08:12:31;98683.28;;;24.12;42.33
78625;BME280;67944;0.000;0.000;2023-10-19T08:14:58;98684.88;;;24.13;41.66
78625;BME280;67944;0.000;0.000;2023-10-19T08:17:23;98680.13;;;24.15;42.52
78625;BME280;67944;0.000;0.000;2023-10-19T08:19:49;98685.44;;;24.15;42.55
78625;BME280;67944;0.000;0.000;2023-10-19T08:22:15;98689.72;;;24.16;42.55
78625;BME280;67944;0.000;0.000;2023-10-19T08:24:41;98688.91;;;24.16;42.12
78625;BME280;67944;0.000;0.000;2023-10-19T13:37:48;98523.47;;;23.92;48.48
78625;BME280;67944;0.000;0.000;2023-10-19T13:40:13;98518.78;;;23.99;47.90
78625;BME280;67944;0.000;0.000;2023-10-19T13:42:39;98518.31;;;24.07;48.28
78625;BME280;67944;0.000;0.000;2023-10-19T13:45:07;98518.13;;;24.14;47.85
78625;BME280;67944;0.000;0.000;2023-10-19T13:47:37;98515.28;;;24.20;48.07
78625;BME280;67944;0.000;0.000;2023-10-19T13:50:03;98515.34;;;24.25;47.17
78625;BME280;67944;0.000;0.000;2023-10-19T13:52:28;98512.19;;;24.29;47.84
78625;BME280;67944;0.000;0.000;2023-10-19T13:54:54;98505.06;;;24.34;47.56
78625;BME280;67944;0.000;0.000;2023-10-19T13:57:19;98499.22;;;24.37;46.85
78625;BME280;67944;0.000;0.000;2023-10-19T13:59:46;98499.53;;;24.41;46.82
78625;BME280;67944;0.000;0.000;2023-10-19T14:02:12;98492.09;;;24.43;46.93
78625;BME280;67944;0.000;0.000;2023-10-19T14:04:37;98489.19;;;24.44;46.98
78625;BME280;67944;0.000;0.000;2023-10-19T14:07:03;98493.19;;;24.47;46.90
78625;BME280;67944;0.000;0.000;2023-10-19T14:09:29;98474.28;;;24.48;47.42
78625;BME280;67944;0.000;0.000;2023-10-19T14:11:57;98474.03;;;24.50;46.77
78625;BME280;67944;0.000;0.000;2023-10-19T14:14:23;98472.19;;;24.50;46.70
78625;BME280;67944;0.000;0.000;2023-10-19T14:16:48;98466.63;;;24.52;46.40
78625;BME280;67944;0.000;0.000;2023-10-19T14:19:16;98461.28;;;24.52;46.22
78625;BME280;67944;0.000;0.000;2023-10-19T14:21:43;98461.03;;;24.53;46.52
78625;BME280;67944;0.000;0.000;2023-10-19T14:24:11;98455.47;;;24.55;47.04
78625;BME280;67944;0.000;0.000;2023-10-19T14:26:36;98449.88;;;24.56;46.84
78625;BME280;67944;0.000;0.000;2023-10-19T14:29:03;98441.91;;;24.56;45.97
78625;BME280;67944;0.000;0.000;2023-10-19T14:31:29;98424.88;;;24.57;46.95
78625;BME280;67944;0.000;0.000;2023-10-19T14:33:54;98412.38;;;24.58;46.12
78625;BME280;67944;0.000;0.000;2023-10-19T14:36:20;98406.00;;;24.59;46.01
78625;BME280;67944;0.000;0.000;2023-10-19T14:38:45;98391.88;;;24.58;46.39
78625;BME280;67944;0.000;0.000;2023-10-19T14:41:11;98380.44;;;24.58;45.99
78625;BME280;67944;0.000;0.000;2023-10-19T14:43:37;98371.41;;;24.59;45.88
78625;BME280;67944;0.000;0.000;2023-10-19T14:46:05;98360.19;;;24.57;46.51
78625;BME280;67944;0.000;0.000;2023-10-19T14:48:31;98347.44;;;24.59;46.26
78625;BME280;67944;0.000;0.000;2023-10-19T14:50:57;98331.22;;;24.60;46.49
78625;BME280;67944;0.000;0.000;2023-10-19T14:53:23;98326.94;;;24.59;46.38
78625;BME280;67944;0.000;0.000;2023-10-19T14:55:50;98331.47;;;24.59;45.65
78625;BME280;67944;0.000;0.000;2023-10-19T14:58:15;98339.47;;;24.59;45.90
78625;BME280;67944;0.000;0.000;2023-10-19T15:00:41;98343.72;;;24.60;46.18
78625;BME280;67944;0.000;0.000;2023-10-19T15:03:10;98350.91;;;24.59;46.44
78625;BME280;67944;0.000;0.000;2023-10-19T15:05:37;98343.72;;;24.60;45.61
78625;BME280;67944;0.000;0.000;2023-10-19T15:08:06;98338.41;;;24.60;45.79
78625;BME280;67944;0.000;0.000;2023-10-19T15:10:32;98316.31;;;24.59;46.47
78625;BME280;67944;0.000;0.000;2023-10-19T15:12:59;98300.34;;;24.59;45.97
78625;BME280;67944;0.000;0.000;2023-10-19T15:15:26;98299.53;;;24.59;46.00
78625;BME280;67944;0.000;0.000;2023-10-19T15:17:52;98299.53;;;24.59;46.43
78625;BME280;67944;0.000;0.000;2023-10-19T15:20:19;98292.63;;;24.58;45.65
78625;BME280;67944;0.000;0.000;2023-10-19T15:22:46;98295.53;;;24.56;45.68
78625;BME280;67944;0.000;0.000;2023-10-19T15:25:13;98303.50;;;24.56;46.40
78625;BME280;67944;0.000;0.000;2023-10-19T15:27:41;98293.13;;;24.55;45.66
78625;BME280;67944;0.000;0.000;2023-10-19T15:30:09;98301.38;;;24.53;46.21
78625;BME280;67944;0.000;0.000;2023-10-19T15:32:37;98292.59;;;24.53;46.24
78625;BME280;67944;0.000;0.000;2023-10-19T15:35:03;98277.66;;;24.52;46.00
78625;BME280;67944;0.000;0.000;2023-10-19T15:37:29;98268.88;;;24.51;46.13
78625;BME280;67944;0.000;0.000;2023-10-19T15:39:55;98247.84;;;24.50;46.08
78625;BME280;67944;0.000;0.000;2023-10-19T15:42:21;98240.94;;;24.49;46.00
78625;BME280;67944;0.000;0.000;2023-10-19T15:44:56;98234.81;;;24.48;45.18
78625;BME280;67944;0.000;0.000;2023-10-19T15:47:22;98235.34;;;24.45;45.44
78625;BME280;67944;0.000;0.000;2023-10-19T15:49:50;98246.00;;;24.45;45.84
78625;BME280;67944;0.000;0.000;2023-10-19T15:52:19;98257.69;;;24.44;46.02
78625;BME280;67944;0.000;0.000;2023-10-19T15:54:45;98256.09;;;24.43;45.69
78625;BME280;67944;0.000;0.000;2023-10-19T15:57:11;98257.16;;;24.42;45.07
78625;BME280;67944;0.000;0.000;2023-10-19T15:59:36;98253.69;;;24.42;45.88
78625;BME280;67944;0.000;0.000;2023-10-19T16:02:02;98248.63;;;24.40;45.15
78625;BME280;67944;0.000;0.000;2023-10-19T16:04:27;98255.25;;;24.38;45.27
78625;BME280;67944;0.000;0.000;2023-10-19T16:06:53;98258.97;;;24.37;45.20
78625;BME280;67944;0.000;0.000;2023-10-19T16:09:18;98257.38;;;24.36;45.81
78625;BME280;67944;0.000;0.000;2023-10-19T16:11:47;98257.38;;;24.36;45.58
78625;BME280;67944;0.000;0.000;2023-10-19T16:14:17;98288.50;;;24.35;45.14
78625;BME280;67944;0.000;0.000;2023-10-19T16:16:46;98279.16;;;24.33;45.64
78625;BME280;67944;0.000;0.000;2023-10-19T16:19:15;98278.38;;;24.32;45.69
78625;BME280;67944;0.000;0.000;2023-10-19T16:21:41;98279.44;;;24.31;45.88
78625;BME280;67944;0.000;0.000;2023-10-19T16:24:07;98273.31;;;24.31;45.26
78625;BME280;67944;0.000;0.000;2023-10-19T16:26:33;98269.03;;;24.30;45.71
78625;BME280;67944;0.000;0.000;2023-10-19T16:29:00;98263.16;;;24.27;45.52
78625;BME280;67944;0.000;0.000;2023-10-19T16:31:26;98267.69;;;24.27;45.34
78625;BME280;67944;0.000;0.000;2023-10-19T16:33:51;98264.47;;;24.25;45.92
78625;BME280;67944;0.000;0.000;2023-10-19T16:36:18;98263.72;;;24.24;45.43
78625;BME280;67944;0.000;0.000;2023-10-19T16:38:44;98269.25;;;24.23;45.67
78625;BME280;67944;0.000;0.000;2023-10-19T16:41:10;98268.47;;;24.22;46.09
78625;BME280;67944;0.000;0.000;2023-10-19T16:43:36;98267.91;;;24.20;45.25
78625;BME280;67944;0.000;0.000;2023-10-19T16:46:03;98263.66;;;24.19;45.25
78625;BME280;67944;0.000;0.000;2023-10-19T16:48:29;98262.84;;;24.19;45.64
78625;BME280;67944;0.000;0.000;2023-10-19T16:51:00;98264.69;;;24.18;45.59
78625;BME280;67944;0.000;0.000;2023-10-19T16:53:25;98263.34;;;24.16;45.42
78625;BME280;67944;0.000;0.000;2023-10-19T16:55:51;98268.66;;;24.16;44.91
78625;BME280;67944;0.000;0.000;2023-10-19T16:58:16;98271.59;;;24.14;45.81
78625;BME280;67944;0.000;0.000;2023-10-19T17:00:42;98279.00;;;24.12;44.90
78625;BME280;67944;0.000;0.000;2023-10-19T17:03:09;98280.88;;;24.12;45.33
78625;BME280;67944;0.000;0.000;2023-10-19T17:05:35;98276.34;;;24.12;45.19
78625;BME280;67944;0.000;0.000;2023-10-19T17:08:00;98278.47;;;24.10;45.47
78625;BME280;67944;0.000;0.000;2023-10-19T17:10:26;98279.53;;;24.09;45.60
78625;BME280;67944;0.000;0.000;2023-10-19T17:12:51;98272.59;;;24.08;45.38
78625;BME280;67944;0.000;0.000;2023-10-19T17:15:17;98276.31;;;24.07;45.95
78625;BME280;67944;0.000;0.000;2023-10-19T17:17:43;98282.69;;;24.06;45.89
78625;BME280;67944;0.000;0.000;2023-10-19T17:20:09;98289.88;;;24.06;45.72
78625;BME280;67944;0.000;0.000;2023-10-19T17:22:34;98302.34;;;24.05;45.71
78625;BME280;67944;0.000;0.000;2023-10-19T17:25:00;98302.63;;;24.04;45.37
78625;BME280;67944;0.000;0.000;2023-10-19T17:27:25;98293.06;;;24.03;45.12
78625;BME280;67944;0.000;0.000;2023-10-19T17:29:51;98289.59;;;24.02;45.27
78625;BME280;67944;0.000;0.000;2023-10-19T17:32:17;98291.72;;;24.00;45.56
78625;BME280;67944;0.000;0.000;2023-10-19T17:34:42;98289.06;;;24.00;45.24
78625;BME280;67944;0.000;0.000;2023-10-19T17:37:08;98283.19;;;23.98;45.37
78625;BME280;67944;0.000;0.000;2023-10-19T17:39:33;98277.88;;;23.98;45.29
78625;BME280;67944;0.000;0.000;2023-10-19T17:41:59;98276.25;;;23.97;45.03
78625;BME280;67944;0.000;0.000;2023-10-19T17:44:26;98277.31;;;23.96;45.71
78625;BME280;67944;0.000;0.000;2023-10-19T17:46:51;98274.91;;;23.95;45.89
78625;BME280;67944;0.000;0.000;2023-10-19T17:49:17;98273.06;;;23.95;45.12
78625;BME280;67944;0.000;0.000;2023-10-19T17:51:43;98262.94;;;23.92;45.77
78625;BME280;67944;0.000;0.000;2023-10-19T17:54:09;98269.84;;;23.93;45.33
78625;BME280;67944;0.000;0.000;2023-10-19T17:56:37;98262.13;;;23.91;45.00
78625;BME280;67944;0.000;0.000;2023-10-19T17:59:02;98270.34;;;23.90;45.18
78625;BME280;67944;0.000;0.000;2023-10-19T18:01:28;98273.81;;;23.90;45.69
78625;BME280;67944;0.000;0.000;2023-10-19T18:03:55;98274.06;;;23.89;45.32
78625;BME280;67944;0.000;0.000;2023-10-19T18:06:21;98278.59;;;23.88;45.71
78625;BME280;67944;0.000;0.000;2023-10-19T18:08:47;98272.47;;;23.88;45.33
78625;BME280;67944;0.000;0.000;2023-10-19T18:11:15;98270.84;;;23.87;45.35
78625;BME280;67944;0.000;0.000;2023-10-19T18:13:43;98273.78;;;23.85;45.60
78625;BME280;67944;0.000;0.000;2023-10-19T18:16:10;98267.66;;;23.85;45.45
78625;BME280;67944;0.000;0.000;2023-10-19T18:18:38;98272.16;;;23.84;45.01
78625;BME280;67944;0.000;0.000;2023-10-19T18:21:14;98258.06;;;23.84;45.52
78625;BME280;67944;0.000;0.000;2023-10-19T18:23:42;98253.81;;;23.83;45.81
78625;BME280;67944;0.000;0.000;2023-10-19T18:26:12;98245.03;;;23.82;45.20